Beberibe, Brazil
Current Conditions -  °F | °C
As of 10:00 AM on Sunday 21 Dec 2014 (Local Time) from SBFZ Reporting Station
Scattered Clouds Scattered Clouds  
Wind Chill: 86°   Ceiling: Unl
Heat Index: 89°   Visibility: 6mi
Dew Point: 68°   Wind: 18mph
Humidity: 55%   Direction: 100°E
Pressure: 29.94"   Gusts: NA
Location:  4.18°S, 38.13°W
Report Text: SBFZ 211300Z 10016KT 9999 SCT020 30/20 Q1014
Loading
Personal Weather Stations






























Interactive Weather Map New forecast layout! Learn more

10-Day Weather Forecast

Advertisements
Track Severe Weather on mobile